createdAt,value
2019-03-27T00:00:42.233Z,36.00
2019-03-27T00:03:09.767Z,32.13
2019-03-27T00:05:37.324Z,29.83
2019-03-27T00:08:04.868Z,32.97
2019-03-27T00:10:32.440Z,33.27
2019-03-27T00:12:59.976Z,26.37
2019-03-27T00:15:27.518Z,31.23
2019-03-27T00:17:54.973Z,28.30
2019-03-27T00:20:22.535Z,36.37
2019-03-27T00:22:50.126Z,32.67
2019-03-27T00:25:17.684Z,31.13
2019-03-27T00:27:45.223Z,29.10
2019-03-27T00:30:13.224Z,37.63
2019-03-27T00:32:40.705Z,31.87
2019-03-27T00:35:10.283Z,32.47
2019-03-27T00:37:37.952Z,38.43
2019-03-27T00:40:06.510Z,30.17
2019-03-27T00:42:34.024Z,33.10
2019-03-27T00:45:01.551Z,35.57
2019-03-27T00:47:29.104Z,34.23
2019-03-27T00:49:56.403Z,33.97
2019-03-27T00:52:23.686Z,34.30
2019-03-27T00:54:51.135Z,36.07
2019-03-27T00:57:18.491Z,31.57
2019-03-27T00:59:45.954Z,32.77
2019-03-27T01:02:13.449Z,29.77
2019-03-27T01:04:40.847Z,28.77
2019-03-27T01:07:08.542Z,27.73
2019-03-27T01:09:36.240Z,32.37
2019-03-27T01:12:03.947Z,33.10
2019-03-27T01:14:31.380Z,31.93
2019-03-27T01:16:58.887Z,39.60
2019-03-27T01:19:26.427Z,29.37
2019-03-27T01:21:53.862Z,29.80
2019-03-27T01:24:21.340Z,32.73
2019-03-27T01:26:49.021Z,32.27
2019-03-27T01:29:16.465Z,29.40
2019-03-27T01:31:43.871Z,37.87
2019-03-27T01:34:11.276Z,34.03
2019-03-27T01:36:38.877Z,44.27
2019-03-27T01:39:06.615Z,30.33
2019-03-27T01:41:34.131Z,26.30
2019-03-27T01:44:01.596Z,24.60
2019-03-27T01:46:29.339Z,26.37
2019-03-27T01:48:56.734Z,26.83
2019-03-27T01:51:24.366Z,22.87
2019-03-27T01:53:51.770Z,28.13
2019-03-27T01:56:19.224Z,30.80
2019-03-27T01:58:46.571Z,28.83
2019-03-27T02:01:14.129Z,24.83
2019-03-27T02:03:41.573Z,26.93
2019-03-27T02:06:09.011Z,25.57
2019-03-27T02:08:36.311Z,25.50
2019-03-27T02:11:03.892Z,30.17
2019-03-27T02:13:31.194Z,24.50
2019-03-27T02:16:06.637Z,25.37
2019-03-27T02:18:28.584Z,29.47
2019-03-27T02:20:56.107Z,26.90
2019-03-27T02:23:23.662Z,25.80
2019-03-27T02:25:51.183Z,26.40
2019-03-27T02:28:18.427Z,25.83
2019-03-27T02:30:45.834Z,25.60
2019-03-27T02:33:13.256Z,29.97
2019-03-27T02:35:40.752Z,25.83
2019-03-27T02:38:08.246Z,26.63
2019-03-27T02:40:35.681Z,26.87
2019-03-27T02:43:03.191Z,26.63
2019-03-27T02:45:30.669Z,38.03
2019-03-27T02:47:57.990Z,28.70
2019-03-27T02:50:25.455Z,26.03
2019-03-27T02:52:52.746Z,27.30
2019-03-27T02:55:20.144Z,26.33
2019-03-27T02:57:47.527Z,34.83
2019-03-27T03:00:15.726Z,26.33
2019-03-27T03:02:43.365Z,28.50
2019-03-27T03:05:11.143Z,26.17
2019-03-27T03:07:38.756Z,21.40
2019-03-27T03:10:08.049Z,28.77
2019-03-27T03:12:35.468Z,25.93
2019-03-27T03:15:03.771Z,29.47
2019-03-27T03:17:31.176Z,27.17
2019-03-27T03:19:58.737Z,27.00
2019-03-27T03:22:26.049Z,33.77
2019-03-27T03:24:53.604Z,29.37
2019-03-27T03:27:21.097Z,30.03
2019-03-27T03:29:48.603Z,26.60
2019-03-27T03:32:16.139Z,25.97
2019-03-27T03:34:43.702Z,30.43
2019-03-27T03:37:11.219Z,26.57
2019-03-27T03:39:38.668Z,28.50
2019-03-27T03:42:06.214Z,27.10
2019-03-27T03:44:33.763Z,27.47
2019-03-27T03:47:01.139Z,26.97
2019-03-27T03:49:28.635Z,29.60
2019-03-27T03:51:56.139Z,20.83
2019-03-27T03:54:23.964Z,28.07
2019-03-27T03:56:54.188Z,29.10
2019-03-27T03:59:22.647Z,24.93
2019-03-27T04:01:54.083Z,22.43
2019-03-27T04:04:22.082Z,21.00
2019-03-27T04:06:49.606Z,17.37
2019-03-27T04:09:17.169Z,18.53
2019-03-27T04:11:44.624Z,18.97
2019-03-27T04:14:12.075Z,22.50
2019-03-27T04:16:39.714Z,19.50
2019-03-27T04:19:07.210Z,18.17
2019-03-27T04:21:34.851Z,18.50
2019-03-27T04:24:02.634Z,25.40
2019-03-27T04:26:33.395Z,28.30
2019-03-27T04:28:59.339Z,23.13
2019-03-27T04:31:26.989Z,27.53
2019-03-27T04:33:54.617Z,21.93
2019-03-27T04:36:22.027Z,27.23
2019-03-27T04:38:49.446Z,23.67
2019-03-27T04:41:16.887Z,25.53
2019-03-27T04:43:44.283Z,26.00
2019-03-27T04:46:11.861Z,21.70
2019-03-27T04:48:39.323Z,20.67
2019-03-27T04:51:06.734Z,19.97
2019-03-27T04:53:34.047Z,22.87
2019-03-27T04:56:01.427Z,22.93
2019-03-27T04:58:28.687Z,19.73
2019-03-27T05:00:56.136Z,25.80
2019-03-27T05:03:23.409Z,21.27
2019-03-27T05:05:50.958Z,23.93
2019-03-27T05:08:18.376Z,25.60
2019-03-27T05:10:45.783Z,28.07
2019-03-27T05:13:13.207Z,21.83
2019-03-27T05:15:40.647Z,27.23
2019-03-27T05:18:08.027Z,25.73
2019-03-27T05:20:35.524Z,26.13
2019-03-27T05:23:03.072Z,21.63
2019-03-27T05:25:30.363Z,25.17
2019-03-27T05:27:57.916Z,23.50
2019-03-27T05:30:28.707Z,23.20
2019-03-27T05:32:56.440Z,22.90
2019-03-27T05:35:23.979Z,25.40
2019-03-27T05:37:51.239Z,19.63
2019-03-27T05:40:18.771Z,20.67
2019-03-27T05:42:59.745Z,19.83
2019-03-27T05:45:16.000Z,20.30
2019-03-27T05:47:43.358Z,25.73
2019-03-27T05:50:10.903Z,22.40
2019-03-27T05:52:38.422Z,28.47
2019-03-27T05:55:06.319Z,28.70
2019-03-27T05:57:33.600Z,26.37
2019-03-27T06:00:01.137Z,28.20
2019-03-27T06:02:28.540Z,29.33
2019-03-27T06:04:55.899Z,28.00
2019-03-27T06:07:23.343Z,27.40
2019-03-27T06:09:50.767Z,28.97
2019-03-27T06:12:20.084Z,29.33
2019-03-27T06:14:47.575Z,25.87
2019-03-27T06:17:15.020Z,24.83
2019-03-27T06:19:42.329Z,25.17
2019-03-27T06:22:11.102Z,26.77
2019-03-27T06:24:38.548Z,23.13
2019-03-27T06:27:05.831Z,21.33
2019-03-27T06:29:33.284Z,26.23
2019-03-27T06:32:00.666Z,22.93
2019-03-27T06:34:28.071Z,21.47
2019-03-27T06:36:55.632Z,20.67
2019-03-27T06:39:22.947Z,19.40
2019-03-27T06:41:50.214Z,21.37
2019-03-27T06:44:17.681Z,21.07
2019-03-27T06:46:44.965Z,21.83
2019-03-27T06:49:12.401Z,16.07
2019-03-27T06:51:40.634Z,20.57
2019-03-27T06:54:08.167Z,15.93
2019-03-27T06:56:35.723Z,17.63
2019-03-27T06:59:03.290Z,18.13
2019-03-27T07:01:30.879Z,19.07
2019-03-27T07:04:09.837Z,20.40
2019-03-27T07:06:27.738Z,16.37
2019-03-27T07:08:55.183Z,19.83
2019-03-27T07:11:22.473Z,21.37
2019-03-27T07:13:50.015Z,20.97
2019-03-27T07:16:17.299Z,19.95
2019-03-27T07:18:44.799Z,17.98
2019-03-27T07:21:12.245Z,18.43
2019-03-27T07:23:39.842Z,17.17
2019-03-27T07:26:07.445Z,16.57
2019-03-27T07:28:34.912Z,16.75
2019-03-27T07:31:02.459Z,21.35
2019-03-27T07:33:29.770Z,20.88
2019-03-27T07:35:57.186Z,19.10
2019-03-27T07:38:24.579Z,17.42
2019-03-27T07:40:51.963Z,19.27
2019-03-27T07:43:19.414Z,15.58
2019-03-27T07:45:46.734Z,19.62
2019-03-27T07:48:14.173Z,12.05
2019-03-27T07:50:41.701Z,11.08
2019-03-27T07:53:09.295Z,16.23
2019-03-27T07:55:36.783Z,14.60
2019-03-27T07:58:04.209Z,17.77
2019-03-27T08:00:31.655Z,16.15
2019-03-27T08:02:59.220Z,14.78
2019-03-27T08:05:26.755Z,18.85
2019-03-27T08:07:54.301Z,16.30
2019-03-27T08:10:21.969Z,16.95
2019-03-27T08:12:49.477Z,21.45
2019-03-27T08:15:17.119Z,18.30
2019-03-27T08:17:44.590Z,19.15
2019-03-27T08:20:12.320Z,16.00
2019-03-27T08:22:39.843Z,16.32
2019-03-27T08:25:09.198Z,19.37
2019-03-27T08:27:36.622Z,13.83
2019-03-27T08:30:06.694Z,15.33
2019-03-27T08:32:37.305Z,10.67
2019-03-27T08:35:03.831Z,19.97
2019-03-27T08:37:31.369Z,15.77
2019-03-27T08:39:58.903Z,18.30
2019-03-27T08:42:26.244Z,16.47
2019-03-27T08:44:53.656Z,23.53
2019-03-27T08:47:21.188Z,16.17
2019-03-27T08:49:48.811Z,21.77
2019-03-27T08:52:16.345Z,19.87
2019-03-27T08:54:43.912Z,18.07
2019-03-27T08:57:11.392Z,21.10
2019-03-27T08:59:38.668Z,18.20
2019-03-27T09:02:06.175Z,17.43
2019-03-27T09:04:33.614Z,16.87
2019-03-27T09:07:01.002Z,14.23
2019-03-27T09:09:28.323Z,21.10
2019-03-27T09:11:55.831Z,15.70
2019-03-27T09:14:23.419Z,15.73
2019-03-27T09:16:50.895Z,16.50
2019-03-27T09:19:18.492Z,21.97
2019-03-27T09:21:45.866Z,20.47
2019-03-27T09:24:13.191Z,22.13
2019-03-27T09:26:40.671Z,15.70
2019-03-27T09:29:08.487Z,19.83
2019-03-27T09:31:44.781Z,18.57
2019-03-27T09:34:05.704Z,16.03
2019-03-27T09:36:33.152Z,27.37
2019-03-27T09:39:00.574Z,18.47
2019-03-27T09:41:28.107Z,17.20
2019-03-27T09:43:55.589Z,19.03
2019-03-27T09:46:22.986Z,20.20
2019-03-27T09:48:50.424Z,17.40
2019-03-27T09:51:17.825Z,18.77
2019-03-27T09:53:45.347Z,20.53
2019-03-27T09:56:19.120Z,19.13
2019-03-27T09:58:42.101Z,15.43
2019-03-27T10:01:09.480Z,24.70
2019-03-27T10:03:37.067Z,14.83
2019-03-27T10:06:04.639Z,17.23
2019-03-27T10:08:32.131Z,14.47
2019-03-27T10:10:59.688Z,15.57
2019-03-27T10:13:27.433Z,15.87
2019-03-27T10:15:54.903Z,14.43
2019-03-27T10:18:22.399Z,15.23
2019-03-27T10:20:49.908Z,12.13
2019-03-27T10:23:17.320Z,21.07
2019-03-27T10:25:44.743Z,12.70
2019-03-27T10:28:12.276Z,15.40
2019-03-27T10:30:39.688Z,14.40
2019-03-27T10:33:07.231Z,20.93
2019-03-27T10:35:34.750Z,16.30
2019-03-27T10:38:02.226Z,16.80
2019-03-27T10:40:29.719Z,18.03
2019-03-27T10:42:57.135Z,17.43
2019-03-27T10:45:24.583Z,13.97
2019-03-27T10:47:52.091Z,15.30
2019-03-27T10:50:19.586Z,11.27
2019-03-27T10:52:47.027Z,12.83
2019-03-27T10:55:14.741Z,12.63
2019-03-27T10:57:42.112Z,17.87
2019-03-27T11:00:10.418Z,18.90
2019-03-27T11:02:37.861Z,17.70
2019-03-27T11:05:05.911Z,14.80
2019-03-27T11:07:33.450Z,19.07
2019-03-27T11:10:00.964Z,17.60
2019-03-27T11:12:28.424Z,18.83
2019-03-27T11:14:56.000Z,12.90
2019-03-27T11:17:23.489Z,16.13
2019-03-27T11:19:50.855Z,21.50
2019-03-27T11:22:18.349Z,19.17
2019-03-27T11:24:45.737Z,14.50
2019-03-27T11:27:13.025Z,21.83
2019-03-27T11:29:40.507Z,18.13
2019-03-27T11:32:08.203Z,16.03
2019-03-27T11:34:35.541Z,15.20
2019-03-27T11:37:02.959Z,16.80
2019-03-27T11:39:30.349Z,22.57
2019-03-27T11:42:00.643Z,20.90
2019-03-27T11:44:27.305Z,13.00
2019-03-27T11:46:54.814Z,16.03
2019-03-27T11:49:22.235Z,14.63
2019-03-27T11:51:49.767Z,16.57
2019-03-27T11:54:17.202Z,14.50
2019-03-27T11:56:44.781Z,17.43
2019-03-27T11:59:12.076Z,18.83
2019-03-27T12:01:43.505Z,16.07
2019-03-27T12:04:08.775Z,14.50
2019-03-27T12:06:36.415Z,15.13
2019-03-27T12:09:05.909Z,19.50
2019-03-27T12:11:33.468Z,16.47
2019-03-27T12:14:01.129Z,13.53
2019-03-27T12:16:28.515Z,15.03
2019-03-27T12:18:55.769Z,14.07
2019-03-27T12:21:23.053Z,15.83
2019-03-27T12:23:50.499Z,12.90
2019-03-27T12:26:17.927Z,11.17
2019-03-27T12:28:45.520Z,13.83
2019-03-27T12:31:13.041Z,17.03
2019-03-27T12:33:40.427Z,12.93
2019-03-27T12:36:07.997Z,15.27
2019-03-27T12:38:35.380Z,17.73
2019-03-27T12:41:02.960Z,12.23
2019-03-27T12:43:30.248Z,12.63
2019-03-27T12:45:57.679Z,14.23
2019-03-27T12:48:25.091Z,11.63
2019-03-27T12:50:52.617Z,16.33
2019-03-27T12:53:20.181Z,15.90
2019-03-27T12:55:47.743Z,17.77
2019-03-27T12:58:15.039Z,17.30
2019-03-27T13:00:42.967Z,20.83
2019-03-27T13:03:10.387Z,12.17
2019-03-27T13:05:37.775Z,13.00
2019-03-27T13:08:05.394Z,14.33
2019-03-27T13:10:32.915Z,11.93
2019-03-27T13:13:00.326Z,15.20
2019-03-27T13:15:27.768Z,15.53
2019-03-27T13:17:55.063Z,12.93
2019-03-27T13:20:22.587Z,11.83
2019-03-27T13:22:50.023Z,15.03
2019-03-27T13:25:17.643Z,15.23
2019-03-27T13:27:47.481Z,15.67
2019-03-27T13:30:15.259Z,13.90
2019-03-27T13:32:42.698Z,17.33
2019-03-27T13:35:10.315Z,14.50
2019-03-27T13:37:37.755Z,16.53
2019-03-27T13:40:06.321Z,11.13
2019-03-27T13:42:33.866Z,16.97
2019-03-27T13:45:01.411Z,15.83
2019-03-27T13:47:28.959Z,13.53
2019-03-27T13:49:56.447Z,13.87
2019-03-27T13:52:23.853Z,11.90
2019-03-27T13:54:51.786Z,15.27
2019-03-27T13:57:19.072Z,17.27
2019-03-27T13:59:46.659Z,14.37
2019-03-27T14:02:14.171Z,13.93
2019-03-27T14:04:41.945Z,11.90
2019-03-27T14:07:09.308Z,10.73
2019-03-27T14:09:36.799Z,11.60
2019-03-27T14:12:04.291Z,16.83
2019-03-27T14:14:31.715Z,13.70
2019-03-27T14:16:59.346Z,12.57
2019-03-27T14:19:26.775Z,14.63
2019-03-27T14:21:55.262Z,17.03
2019-03-27T14:24:22.775Z,15.03
2019-03-27T14:26:50.237Z,17.67
2019-03-27T14:29:17.772Z,16.27
2019-03-27T14:31:51.424Z,16.43
2019-03-27T14:34:18.785Z,14.50
2019-03-27T14:36:46.188Z,14.90
2019-03-27T14:39:13.581Z,16.10
2019-03-27T14:41:41.041Z,14.67
2019-03-27T14:44:08.407Z,10.43
2019-03-27T14:46:35.715Z,13.37
2019-03-27T14:49:03.131Z,14.70
2019-03-27T14:51:30.547Z,15.03
2019-03-27T14:53:58.055Z,17.30
2019-03-27T14:56:25.517Z,12.73
2019-03-27T14:58:52.949Z,12.30
2019-03-27T15:01:20.511Z,14.00
2019-03-27T15:03:48.054Z,14.37
2019-03-27T15:06:15.777Z,14.10
2019-03-27T15:08:43.307Z,15.20
2019-03-27T15:11:10.867Z,15.00
2019-03-27T15:13:38.492Z,15.20
2019-03-27T15:16:06.036Z,17.10
2019-03-27T15:18:33.612Z,16.53
2019-03-27T15:21:01.108Z,14.13
2019-03-27T15:23:28.463Z,18.03
2019-03-27T15:25:55.903Z,17.27
2019-03-27T15:28:23.331Z,15.40
2019-03-27T15:30:50.794Z,14.37
2019-03-27T15:33:18.100Z,14.27
2019-03-27T15:35:45.492Z,13.97
2019-03-27T15:38:12.859Z,18.40
2019-03-27T15:40:42.621Z,16.20
2019-03-27T15:43:10.173Z,21.37
2019-03-27T15:45:37.651Z,23.77
2019-03-27T15:48:05.634Z,14.10
2019-03-27T15:50:33.199Z,12.87
2019-03-27T15:53:00.658Z,19.13
2019-03-27T15:55:28.283Z,15.67
2019-03-27T15:57:55.675Z,18.93
2019-03-27T16:00:23.703Z,14.07
2019-03-27T16:02:51.227Z,21.33
2019-03-27T16:05:18.623Z,16.40
2019-03-27T16:07:46.095Z,18.20
2019-03-27T16:10:13.509Z,16.03
2019-03-27T16:12:40.797Z,16.97
2019-03-27T16:15:09.216Z,14.93
2019-03-27T16:17:36.795Z,15.30
2019-03-27T16:20:04.567Z,15.07
2019-03-27T16:22:32.085Z,14.90
2019-03-27T16:24:59.472Z,15.57
2019-03-27T16:27:26.987Z,18.50
2019-03-27T16:29:54.411Z,14.93
2019-03-27T16:32:21.943Z,13.97
2019-03-27T16:34:49.547Z,17.50
2019-03-27T16:37:16.966Z,15.57
2019-03-27T16:39:44.251Z,17.03
2019-03-27T16:42:11.791Z,16.10
2019-03-27T16:44:39.203Z,13.73
2019-03-27T16:47:06.728Z,14.57
2019-03-27T16:49:34.241Z,27.10
2019-03-27T16:52:01.821Z,15.90
2019-03-27T16:54:29.338Z,13.00
2019-03-27T16:56:57.247Z,18.90
2019-03-27T16:59:24.515Z,18.43
2019-03-27T17:01:52.065Z,15.87
2019-03-27T17:04:19.511Z,16.60
2019-03-27T17:06:49.182Z,15.80
2019-03-27T17:09:16.591Z,18.60
2019-03-27T17:11:43.986Z,13.10
2019-03-27T17:14:11.543Z,19.27
2019-03-27T17:16:39.074Z,15.87
2019-03-27T17:19:06.649Z,16.53
2019-03-27T17:21:34.167Z,13.00
2019-03-27T17:24:01.598Z,21.23
2019-03-27T17:26:28.896Z,17.80
2019-03-27T17:28:56.180Z,19.60
2019-03-27T17:31:23.726Z,17.30
2019-03-27T17:33:51.178Z,15.23
2019-03-27T17:36:18.621Z,16.87
2019-03-27T17:38:46.014Z,17.07
2019-03-27T17:41:13.697Z,22.63
2019-03-27T17:43:41.248Z,19.37
2019-03-27T17:46:08.691Z,14.40
2019-03-27T17:48:36.123Z,12.97
2019-03-27T17:51:03.669Z,16.83
2019-03-27T17:53:32.222Z,14.10
2019-03-27T17:55:59.982Z,19.37
2019-03-27T17:58:27.390Z,15.80
2019-03-27T18:01:01.139Z,18.93
2019-03-27T18:03:28.577Z,18.27
2019-03-27T18:05:56.481Z,15.43
2019-03-27T18:08:24.100Z,20.63
2019-03-27T18:10:51.625Z,18.23
2019-03-27T18:13:19.108Z,20.73
2019-03-27T18:15:46.618Z,20.33
2019-03-27T18:18:14.162Z,19.40
2019-03-27T18:20:41.536Z,22.23
2019-03-27T18:23:09.037Z,21.50
2019-03-27T18:25:36.450Z,16.07
2019-03-27T18:28:04.033Z,20.83
2019-03-27T18:30:31.544Z,22.27
2019-03-27T18:32:59.165Z,20.53
2019-03-27T18:35:26.570Z,22.10
2019-03-27T18:37:54.073Z,21.53
2019-03-27T18:40:21.684Z,20.90
2019-03-27T18:42:51.255Z,19.27
2019-03-27T18:45:18.653Z,27.50
2019-03-27T18:47:46.202Z,23.30
2019-03-27T18:50:13.887Z,26.77
2019-03-27T18:52:41.319Z,22.30
2019-03-27T18:55:08.993Z,21.63
2019-03-27T18:57:36.456Z,18.67
2019-03-27T19:00:05.219Z,21.93
2019-03-27T19:02:36.932Z,19.47
2019-03-27T19:05:04.931Z,21.00
2019-03-27T19:07:32.318Z,23.07
2019-03-27T19:09:59.655Z,20.13
2019-03-27T19:12:27.329Z,20.93
2019-03-27T19:14:54.835Z,18.33
2019-03-27T19:17:22.283Z,20.63
2019-03-27T19:19:49.711Z,19.63
2019-03-27T19:22:17.267Z,20.43
2019-03-27T19:24:44.860Z,17.63
2019-03-27T19:27:12.455Z,24.03
2019-03-27T19:29:39.966Z,19.93
2019-03-27T19:32:07.509Z,26.83
2019-03-27T19:34:35.088Z,20.13
2019-03-27T19:37:02.619Z,22.20
2019-03-27T19:39:30.111Z,18.90
2019-03-27T19:41:58.143Z,24.70
2019-03-27T19:44:25.575Z,25.93
2019-03-27T19:46:53.175Z,25.67
2019-03-27T19:49:20.615Z,22.83
2019-03-27T19:51:48.149Z,24.40
2019-03-27T19:54:26.464Z,19.23
2019-03-27T19:56:45.089Z,21.30
2019-03-27T19:59:12.537Z,22.30
2019-03-27T20:01:40.430Z,24.90
2019-03-27T20:04:10.487Z,21.87
2019-03-27T20:06:41.046Z,25.90
2019-03-27T20:09:16.316Z,25.30
2019-03-27T20:11:44.155Z,22.10
2019-03-27T20:14:12.047Z,22.17
2019-03-27T20:16:39.784Z,24.73
2019-03-27T20:19:16.663Z,23.03
2019-03-27T20:21:46.250Z,24.80
2019-03-27T20:24:17.045Z,26.30
2019-03-27T20:26:44.672Z,26.73
2019-03-27T20:29:12.644Z,31.03
2019-03-27T20:31:40.483Z,28.00
2019-03-27T20:34:07.910Z,25.23
2019-03-27T20:36:35.822Z,27.53
2019-03-27T20:39:06.459Z,26.03
2019-03-27T20:41:36.636Z,27.77
2019-03-27T20:44:04.939Z,26.83
2019-03-27T20:46:32.818Z,29.70
2019-03-27T20:49:02.704Z,21.27
2019-03-27T20:51:30.284Z,32.40
2019-03-27T20:54:01.666Z,30.53
2019-03-27T20:56:29.954Z,28.10
2019-03-27T20:59:01.137Z,29.23
2019-03-27T21:01:27.792Z,36.63
2019-03-27T21:04:01.069Z,42.23
2019-03-27T21:06:28.708Z,38.27
2019-03-27T21:08:56.279Z,39.17
2019-03-27T21:11:24.593Z,44.83
2019-03-27T21:13:52.730Z,37.20
2019-03-27T21:16:22.025Z,41.83
2019-03-27T21:18:51.237Z,37.67
2019-03-27T21:21:19.321Z,37.63
2019-03-27T21:23:46.822Z,33.90
2019-03-27T21:26:14.286Z,38.37
2019-03-27T21:28:41.610Z,32.77
2019-03-27T21:31:09.163Z,31.57
2019-03-27T21:33:36.762Z,28.90
2019-03-27T21:36:04.063Z,37.13
2019-03-27T21:38:31.485Z,32.97
2019-03-27T21:40:58.991Z,31.80
2019-03-27T21:43:26.602Z,28.43
2019-03-27T21:45:54.663Z,30.33
2019-03-27T21:48:22.975Z,30.50
2019-03-27T21:50:50.371Z,29.63
2019-03-27T21:53:17.930Z,29.67
2019-03-27T21:55:45.224Z,35.03
2019-03-27T21:58:12.817Z,29.83
2019-03-27T22:00:41.001Z,30.87
2019-03-27T22:03:08.671Z,29.60
2019-03-27T22:05:36.194Z,35.07
2019-03-27T22:08:03.706Z,29.23
2019-03-27T22:10:31.138Z,37.13
2019-03-27T22:12:59.491Z,32.07
2019-03-27T22:15:26.913Z,29.30
2019-03-27T22:17:54.328Z,30.33
2019-03-27T22:20:21.627Z,30.23
2019-03-27T22:22:49.833Z,27.37
2019-03-27T22:25:17.339Z,29.73
2019-03-27T22:27:44.663Z,33.50
2019-03-27T22:30:12.240Z,29.77
2019-03-27T22:32:39.668Z,34.80
2019-03-27T22:35:07.328Z,32.67
2019-03-27T22:37:34.892Z,37.17
2019-03-27T22:40:02.873Z,33.73
2019-03-27T22:42:30.283Z,32.77
2019-03-27T22:44:57.770Z,32.57
2019-03-27T22:47:25.067Z,32.87
2019-03-27T22:49:52.403Z,38.13
2019-03-27T22:52:19.784Z,32.30
2019-03-27T22:54:47.319Z,30.87
2019-03-27T22:57:14.792Z,32.77
2019-03-27T22:59:42.135Z,34.77
2019-03-27T23:02:09.547Z,32.60
2019-03-27T23:04:36.791Z,29.07
2019-03-27T23:07:04.246Z,35.20
2019-03-27T23:09:31.816Z,29.07
2019-03-27T23:11:59.409Z,28.47
2019-03-27T23:14:26.835Z,29.03
2019-03-27T23:16:54.375Z,28.40
2019-03-27T23:19:21.899Z,28.63
2019-03-27T23:21:49.187Z,28.87
2019-03-27T23:24:16.519Z,33.63
2019-03-27T23:26:44.071Z,34.97
2019-03-27T23:29:11.613Z,34.20
2019-03-27T23:31:39.332Z,34.33
2019-03-27T23:34:06.711Z,31.93
2019-03-27T23:36:34.237Z,33.43
2019-03-27T23:39:04.381Z,34.07
2019-03-27T23:41:31.902Z,28.93
2019-03-27T23:43:59.339Z,33.57
2019-03-27T23:46:26.627Z,31.40
2019-03-27T23:48:54.018Z,29.80
2019-03-27T23:51:21.327Z,27.07
2019-03-27T23:53:48.851Z,31.40
2019-03-27T23:56:17.166Z,32.63
2019-03-27T23:58:44.631Z,28.37
